sensor_id;sensor_type;location;lat;lon;timestamp;pressure;altitude;pressure_sealevel;temperature;humidity
72423;BME280;60413;55.658;37.498;2022-12-07T00:01:33;99976.09;;;-9.18;100.00
72423;BME280;60413;55.658;37.498;2022-12-07T00:04:02;100000.09;;;-9.06;100.00
72423;BME280;60413;55.658;37.498;2022-12-07T00:06:39;100022.72;;;-8.86;100.00
72423;BME280;60413;55.658;37.498;2022-12-07T00:09:08;100011.13;;;-8.91;100.00
72423;BME280;60413;55.658;37.498;2022-12-07T00:11:35;100000.28;;;-9.09;100.00
72423;BME280;60413;55.658;37.498;2022-12-07T00:14:05;99998.81;;;-9.14;100.00
72423;BME280;60413;55.658;37.498;2022-12-07T00:16:32;100045.97;;;-8.76;100.00
72423;BME280;60413;55.658;37.498;2022-12-07T00:18:59;100029.81;;;-8.91;100.00
72423;BME280;60413;55.658;37.498;2022-12-07T00:21:28;99995.34;;;-9.13;100.00
72423;BME280;60413;55.658;37.498;2022-12-07T00:23:55;100029.19;;;-8.95;100.00
72423;BME280;60413;55.658;37.498;2022-12-07T00:26:27;100051.53;;;-8.84;100.00
72423;BME280;60413;55.658;37.498;2022-12-07T00:28:55;100045.63;;;-8.84;100.00
72423;BME280;60413;55.658;37.498;2022-12-07T00:31:24;100014.16;;;-9.14;100.00
72423;BME280;60413;55.658;37.498;2022-12-07T00:33:51;100027.06;;;-9.02;100.00
72423;BME280;60413;55.658;37.498;2022-12-07T00:36:22;99965.78;;;-9.31;100.00
72423;BME280;60413;55.658;37.498;2022-12-07T00:38:49;99952.28;;;-9.33;100.00
72423;BME280;60413;55.658;37.498;2022-12-07T00:41:17;100006.94;;;-9.07;100.00
72423;BME280;60413;55.658;37.498;2022-12-07T00:43:44;100008.47;;;-9.04;100.00
72423;BME280;60413;55.658;37.498;2022-12-07T00:46:11;100003.09;;;-9.28;100.00
72423;BME280;60413;55.658;37.498;2022-12-07T00:48:38;100031.94;;;-8.98;100.00
72423;BME280;60413;55.658;37.498;2022-12-07T00:51:05;100000.53;;;-9.28;100.00
72423;BME280;60413;55.658;37.498;2022-12-07T00:53:35;100018.13;;;-9.24;100.00
72423;BME280;60413;55.658;37.498;2022-12-07T00:58:36;100042.78;;;-9.08;100.00
72423;BME280;60413;55.658;37.498;2022-12-07T01:01:04;100037.09;;;-9.28;100.00
72423;BME280;60413;55.658;37.498;2022-12-07T01:03:31;99983.44;;;-9.57;100.00
72423;BME280;60413;55.658;37.498;2022-12-07T01:05:57;100020.19;;;-9.45;100.00
72423;BME280;60413;55.658;37.498;2022-12-07T01:08:25;99997.19;;;-9.59;100.00
72423;BME280;60413;55.658;37.498;2022-12-07T01:11:06;99986.41;;;-9.64;100.00
72423;BME280;60413;55.658;37.498;2022-12-07T01:13:34;99993.56;;;-9.55;100.00
72423;BME280;60413;55.658;37.498;2022-12-07T01:16:03;99986.16;;;-9.60;100.00
72423;BME280;60413;55.658;37.498;2022-12-07T01:18:32;99992.56;;;-9.53;100.00
72423;BME280;60413;55.658;37.498;2022-12-07T01:21:09;99993.66;;;-9.57;100.00
72423;BME280;60413;55.658;37.498;2022-12-07T01:23:37;100001.94;;;-9.53;100.00
72423;BME280;60413;55.658;37.498;2022-12-07T01:26:06;100054.06;;;-9.27;100.00
72423;BME280;60413;55.658;37.498;2022-12-07T01:28:36;99963.81;;;-9.71;100.00
72423;BME280;60413;55.658;37.498;2022-12-07T01:31:05;100029.06;;;-9.36;100.00
72423;BME280;60413;55.658;37.498;2022-12-07T01:33:34;99988.81;;;-9.61;100.00
72423;BME280;60413;55.658;37.498;2022-12-07T01:38:38;100017.56;;;-9.43;100.00
72423;BME280;60413;55.658;37.498;2022-12-07T01:41:05;100019.81;;;-9.39;100.00
72423;BME280;60413;55.658;37.498;2022-12-07T01:43:32;99979.88;;;-9.54;100.00
72423;BME280;60413;55.658;37.498;2022-12-07T01:45:59;100015.00;;;-9.43;100.00
72423;BME280;60413;55.658;37.498;2022-12-07T01:48:35;100030.88;;;-9.38;100.00
72423;BME280;60413;55.658;37.498;2022-12-07T01:51:08;100015.19;;;-9.46;100.00
72423;BME280;60413;55.658;37.498;2022-12-07T01:53:39;99981.97;;;-9.61;100.00
72423;BME280;60413;55.658;37.498;2022-12-07T01:56:10;99990.16;;;-9.70;100.00
72423;BME280;60413;55.658;37.498;2022-12-07T01:58:37;99993.00;;;-9.60;100.00
72423;BME280;60413;55.658;37.498;2022-12-07T02:01:03;99980.59;;;-9.66;100.00
72423;BME280;60413;55.658;37.498;2022-12-07T02:03:43;99995.28;;;-9.56;100.00
72423;BME280;60413;55.658;37.498;2022-12-07T02:06:16;99985.06;;;-9.56;100.00
72423;BME280;60413;55.658;37.498;2022-12-07T02:08:45;99999.94;;;-9.48;100.00
72423;BME280;60413;55.658;37.498;2022-12-07T02:11:15;99995.44;;;-9.59;100.00
72423;BME280;60413;55.658;37.498;2022-12-07T02:13:43;99953.03;;;-9.76;100.00
72423;BME280;60413;55.658;37.498;2022-12-07T02:16:28;99980.13;;;-9.59;100.00
72423;BME280;60413;55.658;37.498;2022-12-07T02:19:39;100007.72;;;-9.35;100.00
72423;BME280;60413;55.658;37.498;2022-12-07T02:25:32;100000.06;;;-9.35;100.00
72423;BME280;60413;55.658;37.498;2022-12-07T02:30:46;99945.84;;;-9.69;100.00
72423;BME280;60413;55.658;37.498;2022-12-07T02:33:22;99945.69;;;-9.66;100.00
72423;BME280;60413;55.658;37.498;2022-12-07T02:36:16;99997.31;;;-9.32;100.00
72423;BME280;60413;55.658;37.498;2022-12-07T02:38:50;99977.25;;;-9.53;100.00
72423;BME280;60413;55.658;37.498;2022-12-07T02:41:28;99992.03;;;-9.29;100.00
72423;BME280;60413;55.658;37.498;2022-12-07T02:44:18;99993.94;;;-9.33;100.00
72423;BME280;60413;55.658;37.498;2022-12-07T02:46:53;99996.75;;;-9.37;100.00
72423;BME280;60413;55.658;37.498;2022-12-07T02:49:24;99935.72;;;-9.85;100.00
72423;BME280;60413;55.658;37.498;2022-12-07T02:51:54;99947.03;;;-9.75;100.00
72423;BME280;60413;55.658;37.498;2022-12-07T02:54:21;99965.31;;;-9.82;100.00
72423;BME280;60413;55.658;37.498;2022-12-07T03:05:03;99984.25;;;-9.56;100.00
72423;BME280;60413;55.658;37.498;2022-12-07T03:07:48;99994.69;;;-9.75;100.00
72423;BME280;60413;55.658;37.498;2022-12-07T03:10:59;99995.44;;;-9.73;100.00
72423;BME280;60413;55.658;37.498;2022-12-07T03:16:20;99993.44;;;-9.68;100.00
72423;BME280;60413;55.658;37.498;2022-12-07T03:19:10;99984.41;;;-9.74;100.00
72423;BME280;60413;55.658;37.498;2022-12-07T03:21:42;99940.84;;;-10.01;100.00
72423;BME280;60413;55.658;37.498;2022-12-07T03:24:14;99961.78;;;-9.80;100.00
72423;BME280;60413;55.658;37.498;2022-12-07T03:26:46;99959.16;;;-9.78;100.00
72423;BME280;60413;55.658;37.498;2022-12-07T03:29:29;99998.00;;;-9.59;100.00
72423;BME280;60413;55.658;37.498;2022-12-07T03:32:04;99957.41;;;-9.78;100.00
72423;BME280;60413;55.658;37.498;2022-12-07T03:34:39;100006.75;;;-9.63;100.00
72423;BME280;60413;55.658;37.498;2022-12-07T03:37:34;99941.16;;;-9.91;100.00
72423;BME280;60413;55.658;37.498;2022-12-07T03:40:10;99957.50;;;-9.79;100.00
72423;BME280;60413;55.658;37.498;2022-12-07T03:42:39;99996.88;;;-9.69;100.00
72423;BME280;60413;55.658;37.498;2022-12-07T03:45:06;99977.31;;;-9.69;100.00
72423;BME280;60413;55.658;37.498;2022-12-07T03:50:10;99915.06;;;-10.11;100.00
72423;BME280;60413;55.658;37.498;2022-12-07T03:52:53;99956.31;;;-9.88;100.00
72423;BME280;60413;55.658;37.498;2022-12-07T03:55:25;99914.06;;;-10.08;100.00
72423;BME280;60413;55.658;37.498;2022-12-07T03:58:03;99930.00;;;-9.89;100.00
72423;BME280;60413;55.658;37.498;2022-12-07T04:00:33;99944.03;;;-9.81;100.00
72423;BME280;60413;55.658;37.498;2022-12-07T04:02:59;99946.03;;;-9.72;100.00
72423;BME280;60413;55.658;37.498;2022-12-07T04:05:28;99932.16;;;-9.82;100.00
72423;BME280;60413;55.658;37.498;2022-12-07T04:07:54;99905.13;;;-10.15;100.00
72423;BME280;60413;55.658;37.498;2022-12-07T04:10:23;99935.00;;;-9.87;100.00
72423;BME280;60413;55.658;37.498;2022-12-07T04:12:49;99900.03;;;-10.15;100.00
72423;BME280;60413;55.658;37.498;2022-12-07T04:15:15;99896.31;;;-10.10;100.00
72423;BME280;60413;55.658;37.498;2022-12-07T04:17:42;99923.94;;;-10.02;100.00
72423;BME280;60413;55.658;37.498;2022-12-07T04:20:09;99963.06;;;-9.87;100.00
72423;BME280;60413;55.658;37.498;2022-12-07T04:22:35;99968.25;;;-9.74;100.00
72423;BME280;60413;55.658;37.498;2022-12-07T04:25:01;99943.72;;;-9.91;100.00
72423;BME280;60413;55.658;37.498;2022-12-07T04:27:27;99952.06;;;-10.03;100.00
72423;BME280;60413;55.658;37.498;2022-12-07T04:29:53;99933.81;;;-10.12;100.00
72423;BME280;60413;55.658;37.498;2022-12-07T04:32:21;99949.59;;;-10.05;100.00
72423;BME280;60413;55.658;37.498;2022-12-07T04:34:48;99931.53;;;-10.16;100.00
72423;BME280;60413;55.658;37.498;2022-12-07T04:37:16;99928.66;;;-9.96;100.00
72423;BME280;60413;55.658;37.498;2022-12-07T04:39:43;99921.78;;;-9.94;100.00
72423;BME280;60413;55.658;37.498;2022-12-07T04:42:10;99919.94;;;-9.92;100.00
72423;BME280;60413;55.658;37.498;2022-12-07T04:44:37;99896.66;;;-10.16;100.00
72423;BME280;60413;55.658;37.498;2022-12-07T04:47:03;99905.16;;;-10.01;100.00
72423;BME280;60413;55.658;37.498;2022-12-07T04:49:31;99939.50;;;-9.92;100.00
72423;BME280;60413;55.658;37.498;2022-12-07T04:51:58;99915.84;;;-9.94;100.00
72423;BME280;60413;55.658;37.498;2022-12-07T04:54:24;99938.03;;;-9.80;100.00
72423;BME280;60413;55.658;37.498;2022-12-07T04:56:50;99936.59;;;-10.00;100.00
72423;BME280;60413;55.658;37.498;2022-12-07T04:59:16;99891.72;;;-10.19;100.00
72423;BME280;60413;55.658;37.498;2022-12-07T05:01:43;99892.09;;;-10.25;100.00
72423;BME280;60413;55.658;37.498;2022-12-07T05:04:09;99881.44;;;-10.32;100.00
72423;BME280;60413;55.658;37.498;2022-12-07T05:06:35;99972.88;;;-9.81;100.00
72423;BME280;60413;55.658;37.498;2022-12-07T05:09:03;99948.25;;;-9.96;100.00
72423;BME280;60413;55.658;37.498;2022-12-07T05:11:29;99911.88;;;-10.14;100.00
72423;BME280;60413;55.658;37.498;2022-12-07T05:16:34;99880.59;;;-10.32;100.00
72423;BME280;60413;55.658;37.498;2022-12-07T05:19:01;99913.53;;;-10.29;100.00
72423;BME280;60413;55.658;37.498;2022-12-07T05:21:27;99955.34;;;-10.01;100.00
72423;BME280;60413;55.658;37.498;2022-12-07T05:23:53;99911.38;;;-10.35;100.00
72423;BME280;60413;55.658;37.498;2022-12-07T05:26:19;99917.91;;;-10.31;100.00
72423;BME280;60413;55.658;37.498;2022-12-07T05:28:50;99927.25;;;-10.16;100.00
72423;BME280;60413;55.658;37.498;2022-12-07T05:31:16;99900.50;;;-10.39;100.00
72423;BME280;60413;55.658;37.498;2022-12-07T05:33:45;99960.53;;;-10.03;100.00
72423;BME280;60413;55.658;37.498;2022-12-07T05:36:14;99971.84;;;-9.93;100.00
72423;BME280;60413;55.658;37.498;2022-12-07T05:38:40;99919.69;;;-10.17;100.00
72423;BME280;60413;55.658;37.498;2022-12-07T05:41:08;99918.38;;;-10.09;100.00
72423;BME280;60413;55.658;37.498;2022-12-07T05:43:55;99941.69;;;-10.00;100.00
72423;BME280;60413;55.658;37.498;2022-12-07T05:46:21;99897.75;;;-10.20;100.00
72423;BME280;60413;55.658;37.498;2022-12-07T05:48:47;99896.50;;;-10.43;100.00
72423;BME280;60413;55.658;37.498;2022-12-07T05:51:13;99895.09;;;-10.33;100.00
72423;BME280;60413;55.658;37.498;2022-12-07T05:53:39;99926.09;;;-10.10;100.00
72423;BME280;60413;55.658;37.498;2022-12-07T05:56:05;99948.50;;;-10.01;100.00
72423;BME280;60413;55.658;37.498;2022-12-07T05:58:31;99961.66;;;-9.93;100.00
72423;BME280;60413;55.658;37.498;2022-12-07T06:01:15;99928.72;;;-10.12;100.00
72423;BME280;60413;55.658;37.498;2022-12-07T06:03:41;99912.41;;;-10.09;100.00
72423;BME280;60413;55.658;37.498;2022-12-07T06:06:07;99878.16;;;-10.19;100.00
72423;BME280;60413;55.658;37.498;2022-12-07T06:08:34;99957.34;;;-9.76;100.00
72423;BME280;60413;55.658;37.498;2022-12-07T06:14:41;99901.91;;;-10.19;100.00
72423;BME280;60413;55.658;37.498;2022-12-07T06:17:07;99929.59;;;-9.97;100.00
72423;BME280;60413;55.658;37.498;2022-12-07T06:20:09;99925.69;;;-10.18;100.00
72423;BME280;60413;55.658;37.498;2022-12-07T06:22:35;99940.84;;;-10.15;100.00
72423;BME280;60413;55.658;37.498;2022-12-07T06:25:01;99899.09;;;-10.29;100.00
72423;BME280;60413;55.658;37.498;2022-12-07T06:27:27;99917.22;;;-10.19;100.00
72423;BME280;60413;55.658;37.498;2022-12-07T06:29:54;99911.63;;;-10.26;100.00
72423;BME280;60413;55.658;37.498;2022-12-07T06:32:20;99930.84;;;-10.04;100.00
72423;BME280;60413;55.658;37.498;2022-12-07T06:34:46;99921.63;;;-10.07;100.00
72423;BME280;60413;55.658;37.498;2022-12-07T06:37:16;99924.91;;;-10.04;100.00
72423;BME280;60413;55.658;37.498;2022-12-07T06:39:45;99921.31;;;-10.00;100.00
72423;BME280;60413;55.658;37.498;2022-12-07T06:42:19;99915.19;;;-9.98;100.00
72423;BME280;60413;55.658;37.498;2022-12-07T06:44:46;99941.00;;;-9.88;100.00
72423;BME280;60413;55.658;37.498;2022-12-07T06:47:12;99950.00;;;-9.97;100.00
72423;BME280;60413;55.658;37.498;2022-12-07T06:49:41;99895.66;;;-10.13;100.00
72423;BME280;60413;55.658;37.498;2022-12-07T06:52:07;99874.81;;;-10.20;100.00
72423;BME280;60413;55.658;37.498;2022-12-07T06:54:35;99954.00;;;-9.93;100.00
72423;BME280;60413;55.658;37.498;2022-12-07T06:57:02;99918.88;;;-10.18;100.00
72423;BME280;60413;55.658;37.498;2022-12-07T06:59:28;99897.28;;;-10.27;100.00
72423;BME280;60413;55.658;37.498;2022-12-07T07:01:54;99945.88;;;-9.99;100.00
72423;BME280;60413;55.658;37.498;2022-12-07T07:04:23;99917.97;;;-10.17;100.00
72423;BME280;60413;55.658;37.498;2022-12-07T07:06:50;99900.22;;;-10.18;100.00
72423;BME280;60413;55.658;37.498;2022-12-07T07:09:16;99977.31;;;-9.69;100.00
72423;BME280;60413;55.658;37.498;2022-12-07T07:12:11;99951.03;;;-9.85;100.00
72423;BME280;60413;55.658;37.498;2022-12-07T07:14:48;99915.72;;;-10.07;100.00
72423;BME280;60413;55.658;37.498;2022-12-07T07:17:15;99936.59;;;-10.00;100.00
72423;BME280;60413;55.658;37.498;2022-12-07T07:19:43;99888.09;;;-10.15;100.00
72423;BME280;60413;55.658;37.498;2022-12-07T07:22:12;99942.75;;;-9.89;100.00
72423;BME280;60413;55.658;37.498;2022-12-07T07:24:39;99904.69;;;-10.08;100.00
72423;BME280;60413;55.658;37.498;2022-12-07T07:27:06;99943.88;;;-9.94;100.00
72423;BME280;60413;55.658;37.498;2022-12-07T07:29:32;99915.38;;;-10.01;100.00
72423;BME280;60413;55.658;37.498;2022-12-07T07:31:59;99909.84;;;-9.93;100.00
72423;BME280;60413;55.658;37.498;2022-12-07T07:38:30;99872.91;;;-10.16;100.00
72423;BME280;60413;55.658;37.498;2022-12-07T07:41:01;99887.53;;;-9.90;100.00
72423;BME280;60413;55.658;37.498;2022-12-07T07:43:29;99886.69;;;-10.04;100.00
72423;BME280;60413;55.658;37.498;2022-12-07T07:45:58;99894.66;;;-9.80;100.00
72423;BME280;60413;55.658;37.498;2022-12-07T07:48:27;99917.41;;;-9.77;100.00
72423;BME280;60413;55.658;37.498;2022-12-07T07:50:54;99878.44;;;-9.94;100.00
72423;BME280;60413;55.658;37.498;2022-12-07T07:53:20;99871.81;;;-10.12;100.00
72423;BME280;60413;55.658;37.498;2022-12-07T08:00:11;99910.00;;;-9.52;100.00
72423;BME280;60413;55.658;37.498;2022-12-07T08:02:42;99864.19;;;-9.98;100.00
72423;BME280;60413;55.658;37.498;2022-12-07T08:05:10;99915.78;;;-9.64;100.00
72423;BME280;60413;55.658;37.498;2022-12-07T08:11:54;99884.34;;;-9.79;100.00
72423;BME280;60413;55.658;37.498;2022-12-07T08:14:26;99857.72;;;-9.89;100.00
72423;BME280;60413;55.658;37.498;2022-12-07T08:17:41;99859.94;;;-9.83;100.00
72423;BME280;60413;55.658;37.498;2022-12-07T08:20:38;99936.06;;;-9.32;100.00
72423;BME280;60413;55.658;37.498;2022-12-07T08:23:34;99902.53;;;-9.40;100.00
72423;BME280;60413;55.658;37.498;2022-12-07T08:26:07;99895.22;;;-9.46;100.00
72423;BME280;60413;55.658;37.498;2022-12-07T08:32:22;99909.88;;;-7.98;100.00
72423;BME280;60413;55.658;37.498;2022-12-07T08:35:25;99879.91;;;-7.70;100.00
72423;BME280;60413;55.658;37.498;2022-12-07T08:38:00;99837.13;;;-7.81;100.00
72423;BME280;60413;55.658;37.498;2022-12-07T08:40:38;99852.75;;;-7.34;100.00
72423;BME280;60413;55.658;37.498;2022-12-07T09:00:04;99902.47;;;-6.39;100.00
72423;BME280;60413;55.658;37.498;2022-12-07T09:07:25;99818.47;;;-8.22;100.00
72423;BME280;60413;55.658;37.498;2022-12-07T09:09:52;99860.06;;;-8.32;100.00
72423;BME280;60413;55.658;37.498;2022-12-07T09:12:32;99860.28;;;-8.48;100.00
72423;BME280;60413;55.658;37.498;2022-12-07T09:15:05;99874.78;;;-8.49;100.00
72423;BME280;60413;55.658;37.498;2022-12-07T09:17:35;99866.44;;;-8.65;100.00
72423;BME280;60413;55.658;37.498;2022-12-07T09:20:05;99851.63;;;-8.73;100.00
72423;BME280;60413;55.658;37.498;2022-12-07T09:22:38;99869.16;;;-8.54;100.00
72423;BME280;60413;55.658;37.498;2022-12-07T09:25:18;99852.94;;;-8.67;100.00
72423;BME280;60413;55.658;37.498;2022-12-07T09:27:59;99830.41;;;-8.88;100.00
72423;BME280;60413;55.658;37.498;2022-12-07T09:30:27;99825.19;;;-8.86;100.00
72423;BME280;60413;55.658;37.498;2022-12-07T09:33:03;99863.94;;;-8.52;100.00
72423;BME280;60413;55.658;37.498;2022-12-07T09:35:38;99879.81;;;-8.34;100.00
72423;BME280;60413;55.658;37.498;2022-12-07T09:38:22;99862.41;;;-8.55;100.00
72423;BME280;60413;55.658;37.498;2022-12-07T09:41:07;99822.63;;;-8.59;100.00
72423;BME280;60413;55.658;37.498;2022-12-07T09:43:43;99879.50;;;-7.90;100.00
72423;BME280;60413;55.658;37.498;2022-12-07T09:46:19;99794.34;;;-8.05;100.00
72423;BME280;60413;55.658;37.498;2022-12-07T09:48:55;99873.03;;;-7.57;100.00
72423;BME280;60413;55.658;37.498;2022-12-07T09:51:44;99822.28;;;-7.76;100.00
72423;BME280;60413;55.658;37.498;2022-12-07T09:54:28;99832.19;;;-7.58;100.00
72423;BME280;60413;55.658;37.498;2022-12-07T09:57:16;99797.19;;;-8.09;100.00
72423;BME280;60413;55.658;37.498;2022-12-07T10:00:06;99875.09;;;-7.88;100.00
72423;BME280;60413;55.658;37.498;2022-12-07T10:02:38;99813.47;;;-8.10;100.00
72423;BME280;60413;55.658;37.498;2022-12-07T10:05:59;99819.06;;;-8.31;100.00
72423;BME280;60413;55.658;37.498;2022-12-07T10:08:41;99795.91;;;-8.68;100.00
72423;BME280;60413;55.658;37.498;2022-12-07T10:11:16;99773.53;;;-8.64;100.00
72423;BME280;60413;55.658;37.498;2022-12-07T10:14:13;99787.78;;;-8.60;100.00
72423;BME280;60413;55.658;37.498;2022-12-07T10:16:59;99776.09;;;-8.64;100.00
72423;BME280;60413;55.658;37.498;2022-12-07T10:19:32;99788.94;;;-8.79;100.00
72423;BME280;60413;55.658;37.498;2022-12-07T10:22:28;99852.41;;;-8.32;100.00
72423;BME280;60413;55.658;37.498;2022-12-07T10:25:29;99788.63;;;-8.74;100.00
72423;BME280;60413;55.658;37.498;2022-12-07T10:28:15;99784.66;;;-8.78;100.00
72423;BME280;60413;55.658;37.498;2022-12-07T10:31:00;99774.56;;;-8.94;100.00
72423;BME280;60413;55.658;37.498;2022-12-07T10:37:41;99765.94;;;-8.79;100.00
72423;BME280;60413;55.658;37.498;2022-12-07T10:40:44;99805.94;;;-8.65;100.00
72423;BME280;60413;55.658;37.498;2022-12-07T10:43:34;99762.94;;;-8.85;100.00
72423;BME280;60413;55.658;37.498;2022-12-07T10:52:16;99834.28;;;-8.42;100.00
72423;BME280;60413;55.658;37.498;2022-12-07T10:55:04;99763.59;;;-8.69;100.00
72423;BME280;60413;55.658;37.498;2022-12-07T11:07:01;99815.91;;;-8.47;100.00
72423;BME280;60413;55.658;37.498;2022-12-07T11:09:47;99802.16;;;-8.59;100.00
72423;BME280;60413;55.658;37.498;2022-12-07T11:12:35;99793.13;;;-8.78;100.00
72423;BME280;60413;55.658;37.498;2022-12-07T11:15:22;99817.59;;;-8.73;100.00
72423;BME280;60413;55.658;37.498;2022-12-07T11:20:49;99807.94;;;-8.83;100.00
72423;BME280;60413;55.658;37.498;2022-12-07T11:29:35;99793.47;;;-8.69;100.00
72423;BME280;60413;55.658;37.498;2022-12-07T11:39:16;99738.31;;;-8.99;100.00
72423;BME280;60413;55.658;37.498;2022-12-07T11:41:54;99779.44;;;-8.77;100.00
72423;BME280;60413;55.658;37.498;2022-12-07T11:47:20;99725.13;;;-9.33;100.00
72423;BME280;60413;55.658;37.498;2022-12-07T11:53:20;99763.47;;;-8.93;100.00
72423;BME280;60413;55.658;37.498;2022-12-07T12:04:22;99764.72;;;-9.13;100.00
72423;BME280;60413;55.658;37.498;2022-12-07T12:07:07;99722.75;;;-9.36;100.00
72423;BME280;60413;55.658;37.498;2022-12-07T12:09:54;99776.94;;;-9.18;100.00
72423;BME280;60413;55.658;37.498;2022-12-07T12:21:07;99718.75;;;-9.40;100.00
72423;BME280;60413;55.658;37.498;2022-12-07T12:24:35;99713.84;;;-9.43;100.00
72423;BME280;60413;55.658;37.498;2022-12-07T12:27:36;99742.19;;;-9.34;100.00
72423;BME280;60413;55.658;37.498;2022-12-07T12:42:45;99706.72;;;-9.80;100.00
72423;BME280;60413;55.658;37.498;2022-12-07T12:45:33;99715.00;;;-9.76;100.00
72423;BME280;60413;55.658;37.498;2022-12-07T12:48:35;99657.88;;;-10.15;100.00
72423;BME280;60413;55.658;37.498;2022-12-07T13:00:00;99662.97;;;-10.30;100.00
72423;BME280;60413;55.658;37.498;2022-12-07T13:02:34;99684.50;;;-10.34;100.00
72423;BME280;60413;55.658;37.498;2022-12-07T13:07:56;99689.63;;;-10.21;100.00
72423;BME280;60413;55.658;37.498;2022-12-07T13:10:46;99722.50;;;-10.16;100.00
72423;BME280;60413;55.658;37.498;2022-12-07T13:16:36;99658.72;;;-10.44;100.00
72423;BME280;60413;55.658;37.498;2022-12-07T13:18:41;99676.28;;;-10.39;100.00
72423;BME280;60413;55.658;37.498;2022-12-07T13:24:00;99691.22;;;-10.33;100.00
72423;BME280;60413;55.658;37.498;2022-12-07T13:26:45;99715.03;;;-10.19;100.00
72423;BME280;60413;55.658;37.498;2022-12-07T13:29:21;99691.28;;;-10.20;100.00
72423;BME280;60413;55.658;37.498;2022-12-07T13:31:51;99730.50;;;-10.08;100.00
72423;BME280;60413;55.658;37.498;2022-12-07T13:34:37;99728.69;;;-10.06;100.00
72423;BME280;60413;55.658;37.498;2022-12-07T13:37:21;99675.56;;;-10.41;100.00
72423;BME280;60413;55.658;37.498;2022-12-07T13:39:56;99715.03;;;-10.19;100.00
72423;BME280;60413;55.658;37.498;2022-12-07T13:42:32;99625.50;;;-10.71;100.00
72423;BME280;60413;55.658;37.498;2022-12-07T13:45:16;99715.84;;;-10.19;100.00
72423;BME280;60413;55.658;37.498;2022-12-07T13:47:57;99684.59;;;-10.35;100.00
72423;BME280;60413;55.658;37.498;2022-12-07T13:50:31;99642.25;;;-10.67;100.00
72423;BME280;60413;55.658;37.498;2022-12-07T13:53:01;99660.63;;;-10.62;100.00
72423;BME280;60413;55.658;37.498;2022-12-07T13:55:32;99658.38;;;-10.52;100.00
72423;BME280;60413;55.658;37.498;2022-12-07T13:58:01;99688.47;;;-10.44;100.00
72423;BME280;60413;55.658;37.498;2022-12-07T14:00:29;99705.31;;;-10.27;100.00
72423;BME280;60413;55.658;37.498;2022-12-07T14:03:04;99703.75;;;-10.30;100.00
72423;BME280;60413;55.658;37.498;2022-12-07T14:06:13;99644.44;;;-10.75;100.00
72423;BME280;60413;55.658;37.498;2022-12-07T14:09:07;99685.28;;;-10.62;100.00
72423;BME280;60413;55.658;37.498;2022-12-07T14:11:37;99726.69;;;-10.30;100.00
72423;BME280;60413;55.658;37.498;2022-12-07T14:14:05;99661.09;;;-10.55;100.00
72423;BME280;60413;55.658;37.498;2022-12-07T14:16:35;99635.50;;;-10.68;100.00
72423;BME280;60413;55.658;37.498;2022-12-07T14:19:04;99628.41;;;-10.77;100.00
72423;BME280;60413;55.658;37.498;2022-12-07T14:21:34;99681.03;;;-10.47;100.00
72423;BME280;60413;55.658;37.498;2022-12-07T14:24:16;99657.00;;;-10.43;100.00
72423;BME280;60413;55.658;37.498;2022-12-07T14:26:50;99686.63;;;-10.28;100.00
72423;BME280;60413;55.658;37.498;2022-12-07T14:31:55;99622.94;;;-10.71;100.00
72423;BME280;60413;55.658;37.498;2022-12-07T14:34:22;99628.88;;;-10.70;100.00
72423;BME280;60413;55.658;37.498;2022-12-07T14:36:57;99666.63;;;-10.48;100.00
72423;BME280;60413;55.658;37.498;2022-12-07T14:39:23;99691.09;;;-10.31;100.00
72423;BME280;60413;55.658;37.498;2022-12-07T14:41:53;99688.28;;;-10.41;100.00
72423;BME280;60413;55.658;37.498;2022-12-07T14:44:25;99648.34;;;-10.55;100.00
72423;BME280;60413;55.658;37.498;2022-12-07T14:46:58;99616.22;;;-10.72;100.00
72423;BME280;60413;55.658;37.498;2022-12-07T14:49:28;99636.06;;;-10.63;100.00
72423;BME280;60413;55.658;37.498;2022-12-07T14:52:29;99703.47;;;-10.25;100.00
72423;BME280;60413;55.658;37.498;2022-12-07T14:54:56;99733.13;;;-10.24;100.00
72423;BME280;60413;55.658;37.498;2022-12-07T14:57:26;99625.50;;;-10.56;100.00
72423;BME280;60413;55.658;37.498;2022-12-07T14:59:53;99671.84;;;-10.35;100.00
72423;BME280;60413;55.658;37.498;2022-12-07T15:05:40;99624.97;;;-10.62;100.00
72423;BME280;60413;55.658;37.498;2022-12-07T15:08:12;99658.44;;;-10.39;100.00
72423;BME280;60413;55.658;37.498;2022-12-07T15:10:38;99674.97;;;-10.17;100.00
72423;BME280;60413;55.658;37.498;2022-12-07T15:13:08;99674.50;;;-10.24;100.00
72423;BME280;60413;55.658;37.498;2022-12-07T15:15:59;99686.63;;;-10.13;100.00
72423;BME280;60413;55.658;37.498;2022-12-07T15:18:25;99648.91;;;-10.35;100.00
72423;BME280;60413;55.658;37.498;2022-12-07T15:20:52;99676.88;;;-10.21;100.00
72423;BME280;60413;55.658;37.498;2022-12-07T15:23:21;99639.34;;;-10.32;100.00
72423;BME280;60413;55.658;37.498;2022-12-07T15:25:51;99614.88;;;-10.63;100.00
72423;BME280;60413;55.658;37.498;2022-12-07T15:33:05;99654.34;;;-10.27;100.00
72423;BME280;60413;55.658;37.498;2022-12-07T15:35:32;99640.59;;;-10.39;100.00
72423;BME280;60413;55.658;37.498;2022-12-07T15:37:58;99631.50;;;-10.43;100.00
72423;BME280;60413;55.658;37.498;2022-12-07T15:40:24;99672.25;;;-10.29;100.00
72423;BME280;60413;55.658;37.498;2022-12-07T15:42:51;99656.88;;;-10.27;100.00
72423;BME280;60413;55.658;37.498;2022-12-07T15:45:17;99620.59;;;-10.45;100.00
72423;BME280;60413;55.658;37.498;2022-12-07T15:47:47;99652.59;;;-10.27;100.00
72423;BME280;60413;55.658;37.498;2022-12-07T15:50:19;99575.66;;;-10.75;100.00
72423;BME280;60413;55.658;37.498;2022-12-07T15:52:46;99628.06;;;-10.42;100.00
72423;BME280;60413;55.658;37.498;2022-12-07T15:55:13;99592.78;;;-10.77;100.00
72423;BME280;60413;55.658;37.498;2022-12-07T15:57:41;99574.94;;;-10.77;100.00